Portada
METAR-TAF:

METAR-TAF

Aeroports :

Kharg, Iran

latitud: 29-15-34N, longitud: 50-19-24E, altitud: 5 m

Observació

L'informe es va fer fa 1 hora i 2 minuts, a les 07:00 UTC
Vent 6 kt del Est/Nord-Est
Temperatura 36°C
Humitat 76%
Pressió 997 hPa
Visibilitat: 4000 m
calitja

METAR: OIBQ 190700Z 07006KT 4000 HZ NSC 36/31 Q0997

Hora: 12:32 (08:02 UTC)


TAF: manca

Observacions i pronòstics meteorològics de més de 4000 aeroports (METAR i TAF).

Les estacions disponibles són els punts grocs i vermells al mapa.

Posi el ratolí al punt desitjat per veure el nom de l'estació.

Feu clic per veure les observacions i els pronòstics meteorològics.

Per canviar el mapa: feu clic els botons verds amb una creu de color negre per apropar; al botó verd amb un guió per allunyar la imatge; o en les fletxes verdes per a mapes adjacents.


METAR-TAF: